sensor_id;sensor_type;location;lat;lon;timestamp;P1;durP1;ratioP1;P2;durP2;ratioP2
20042;SDS011;10182;52.896;6.496;2022-12-05T00:03:50;26.97;;;18.77;;
20042;SDS011;10182;52.896;6.496;2022-12-05T00:08:55;25.40;;;17.57;;
20042;SDS011;10182;52.896;6.496;2022-12-05T00:13:58;29.37;;;18.93;;
20042;SDS011;10182;52.896;6.496;2022-12-05T00:19:01;30.47;;;20.17;;
20042;SDS011;10182;52.896;6.496;2022-12-05T00:24:07;29.87;;;19.83;;
20042;SDS011;10182;52.896;6.496;2022-12-05T00:29:11;35.57;;;21.43;;
20042;SDS011;10182;52.896;6.496;2022-12-05T00:34:13;30.60;;;21.30;;
20042;SDS011;10182;52.896;6.496;2022-12-05T00:39:16;32.13;;;20.73;;
20042;SDS011;10182;52.896;6.496;2022-12-05T00:44:18;29.10;;;20.87;;
20042;SDS011;10182;52.896;6.496;2022-12-05T00:49:19;30.23;;;22.33;;
20042;SDS011;10182;52.896;6.496;2022-12-05T00:54:22;34.30;;;22.03;;
20042;SDS011;10182;52.896;6.496;2022-12-05T00:59:24;29.73;;;21.90;;
20042;SDS011;10182;52.896;6.496;2022-12-05T01:04:26;30.17;;;22.47;;
20042;SDS011;10182;52.896;6.496;2022-12-05T01:09:29;30.73;;;20.63;;
20042;SDS011;10182;52.896;6.496;2022-12-05T01:14:30;30.67;;;22.00;;
20042;SDS011;10182;52.896;6.496;2022-12-05T01:19:32;35.37;;;23.00;;
20042;SDS011;10182;52.896;6.496;2022-12-05T01:24:35;35.50;;;22.70;;
20042;SDS011;10182;52.896;6.496;2022-12-05T01:29:37;36.87;;;24.23;;
20042;SDS011;10182;52.896;6.496;2022-12-05T01:34:39;38.13;;;23.17;;
20042;SDS011;10182;52.896;6.496;2022-12-05T01:39:42;31.10;;;22.37;;
20042;SDS011;10182;52.896;6.496;2022-12-05T01:45:09;41.03;;;24.90;;
20042;SDS011;10182;52.896;6.496;2022-12-05T01:50:15;42.03;;;26.07;;
20042;SDS011;10182;52.896;6.496;2022-12-05T01:55:18;45.03;;;27.47;;
20042;SDS011;10182;52.896;6.496;2022-12-05T02:00:20;47.27;;;28.70;;
20042;SDS011;10182;52.896;6.496;2022-12-05T02:05:23;47.57;;;29.23;;
20042;SDS011;10182;52.896;6.496;2022-12-05T02:10:30;43.60;;;29.87;;
20042;SDS011;10182;52.896;6.496;2022-12-05T02:15:36;46.47;;;28.53;;
20042;SDS011;10182;52.896;6.496;2022-12-05T02:20:47;44.10;;;28.33;;
20042;SDS011;10182;52.896;6.496;2022-12-05T02:26:14;50.63;;;29.83;;
20042;SDS011;10182;52.896;6.496;2022-12-05T02:31:31;45.70;;;28.17;;
20042;SDS011;10182;52.896;6.496;2022-12-05T02:36:36;48.97;;;30.03;;
20042;SDS011;10182;52.896;6.496;2022-12-05T02:41:45;46.50;;;28.43;;
20042;SDS011;10182;52.896;6.496;2022-12-05T02:46:52;43.40;;;29.00;;
20042;SDS011;10182;52.896;6.496;2022-12-05T02:51:57;46.03;;;29.13;;
20042;SDS011;10182;52.896;6.496;2022-12-05T02:57:00;45.27;;;27.90;;
20042;SDS011;10182;52.896;6.496;2022-12-05T03:02:04;46.50;;;27.97;;
20042;SDS011;10182;52.896;6.496;2022-12-05T03:07:06;42.57;;;28.27;;
20042;SDS011;10182;52.896;6.496;2022-12-05T03:12:13;43.53;;;28.07;;
20042;SDS011;10182;52.896;6.496;2022-12-05T03:17:22;43.67;;;26.50;;
20042;SDS011;10182;52.896;6.496;2022-12-05T03:22:29;41.93;;;26.07;;
20042;SDS011;10182;52.896;6.496;2022-12-05T03:27:38;40.30;;;26.87;;
20042;SDS011;10182;52.896;6.496;2022-12-05T03:32:50;41.90;;;27.17;;
20042;SDS011;10182;52.896;6.496;2022-12-05T03:37:56;41.70;;;26.57;;
20042;SDS011;10182;52.896;6.496;2022-12-05T03:43:05;40.47;;;24.67;;
20042;SDS011;10182;52.896;6.496;2022-12-05T03:48:15;38.73;;;26.17;;
20042;SDS011;10182;52.896;6.496;2022-12-05T03:53:25;31.40;;;21.37;;
20042;SDS011;10182;52.896;6.496;2022-12-05T03:58:30;32.83;;;22.17;;
20042;SDS011;10182;52.896;6.496;2022-12-05T04:03:40;29.50;;;19.83;;
20042;SDS011;10182;52.896;6.496;2022-12-05T04:08:46;31.43;;;20.80;;
20042;SDS011;10182;52.896;6.496;2022-12-05T04:13:51;26.43;;;20.03;;
20042;SDS011;10182;52.896;6.496;2022-12-05T04:18:57;23.93;;;19.03;;
20042;SDS011;10182;52.896;6.496;2022-12-05T04:24:02;30.50;;;20.50;;
20042;SDS011;10182;52.896;6.496;2022-12-05T04:29:23;20.83;;;17.27;;
20042;SDS011;10182;52.896;6.496;2022-12-05T04:34:30;24.60;;;18.17;;
20042;SDS011;10182;52.896;6.496;2022-12-05T04:39:36;26.87;;;19.13;;
20042;SDS011;10182;52.896;6.496;2022-12-05T04:44:43;25.40;;;18.73;;
20042;SDS011;10182;52.896;6.496;2022-12-05T04:49:51;22.27;;;17.30;;
20042;SDS011;10182;52.896;6.496;2022-12-05T04:54:56;20.80;;;17.53;;
20042;SDS011;10182;52.896;6.496;2022-12-05T05:00:03;19.43;;;16.33;;
20042;SDS011;10182;52.896;6.496;2022-12-05T05:05:08;18.63;;;14.77;;
20042;SDS011;10182;52.896;6.496;2022-12-05T05:10:15;15.07;;;13.23;;
20042;SDS011;10182;52.896;6.496;2022-12-05T05:15:19;19.17;;;13.80;;
20042;SDS011;10182;52.896;6.496;2022-12-05T05:20:22;13.87;;;12.23;;
20042;SDS011;10182;52.896;6.496;2022-12-05T05:25:25;13.83;;;12.27;;
20042;SDS011;10182;52.896;6.496;2022-12-05T05:30:27;12.03;;;10.70;;
20042;SDS011;10182;52.896;6.496;2022-12-05T05:35:30;12.27;;;10.50;;
20042;SDS011;10182;52.896;6.496;2022-12-05T05:40:33;11.97;;;10.67;;
20042;SDS011;10182;52.896;6.496;2022-12-05T05:45:36;12.90;;;10.73;;
20042;SDS011;10182;52.896;6.496;2022-12-05T05:50:39;12.07;;;9.60;;
20042;SDS011;10182;52.896;6.496;2022-12-05T05:55:41;12.47;;;10.13;;
20042;SDS011;10182;52.896;6.496;2022-12-05T06:00:43;12.47;;;10.00;;
20042;SDS011;10182;52.896;6.496;2022-12-05T06:05:46;12.80;;;10.30;;
20042;SDS011;10182;52.896;6.496;2022-12-05T06:10:56;13.77;;;10.90;;
20042;SDS011;10182;52.896;6.496;2022-12-05T06:15:58;12.57;;;10.53;;
20042;SDS011;10182;52.896;6.496;2022-12-05T06:21:01;13.27;;;10.57;;
20042;SDS011;10182;52.896;6.496;2022-12-05T06:26:06;11.27;;;9.93;;
20042;SDS011;10182;52.896;6.496;2022-12-05T06:31:11;10.90;;;9.80;;
20042;SDS011;10182;52.896;6.496;2022-12-05T06:36:18;10.07;;;8.90;;
20042;SDS011;10182;52.896;6.496;2022-12-05T06:41:21;12.63;;;9.67;;
20042;SDS011;10182;52.896;6.496;2022-12-05T06:46:24;10.23;;;9.03;;
20042;SDS011;10182;52.896;6.496;2022-12-05T06:51:28;11.27;;;8.43;;
20042;SDS011;10182;52.896;6.496;2022-12-05T06:56:29;10.73;;;9.20;;
20042;SDS011;10182;52.896;6.496;2022-12-05T07:01:31;12.03;;;10.00;;
20042;SDS011;10182;52.896;6.496;2022-12-05T07:06:42;12.33;;;10.67;;
20042;SDS011;10182;52.896;6.496;2022-12-05T07:11:45;13.97;;;9.57;;
20042;SDS011;10182;52.896;6.496;2022-12-05T07:16:47;12.97;;;9.73;;
20042;SDS011;10182;52.896;6.496;2022-12-05T07:21:51;12.30;;;10.73;;
20042;SDS011;10182;52.896;6.496;2022-12-05T07:26:53;13.23;;;10.17;;
20042;SDS011;10182;52.896;6.496;2022-12-05T07:31:54;13.83;;;11.10;;
20042;SDS011;10182;52.896;6.496;2022-12-05T07:36:58;14.80;;;11.00;;
20042;SDS011;10182;52.896;6.496;2022-12-05T07:42:00;19.10;;;13.03;;
20042;SDS011;10182;52.896;6.496;2022-12-05T07:47:01;15.93;;;12.03;;
20042;SDS011;10182;52.896;6.496;2022-12-05T07:52:07;15.83;;;11.60;;
20042;SDS011;10182;52.896;6.496;2022-12-05T07:57:09;17.60;;;11.90;;
20042;SDS011;10182;52.896;6.496;2022-12-05T08:02:11;13.80;;;11.27;;
20042;SDS011;10182;52.896;6.496;2022-12-05T08:07:14;15.73;;;11.83;;
20042;SDS011;10182;52.896;6.496;2022-12-05T08:12:16;16.53;;;11.33;;
20042;SDS011;10182;52.896;6.496;2022-12-05T08:17:17;17.60;;;12.10;;
20042;SDS011;10182;52.896;6.496;2022-12-05T08:22:20;17.90;;;12.57;;
20042;SDS011;10182;52.896;6.496;2022-12-05T08:27:22;15.70;;;12.70;;
20042;SDS011;10182;52.896;6.496;2022-12-05T08:32:24;17.67;;;12.67;;
20042;SDS011;10182;52.896;6.496;2022-12-05T08:37:27;17.00;;;12.77;;
20042;SDS011;10182;52.896;6.496;2022-12-05T08:42:29;18.73;;;12.57;;
20042;SDS011;10182;52.896;6.496;2022-12-05T08:47:30;15.57;;;12.13;;
20042;SDS011;10182;52.896;6.496;2022-12-05T08:52:34;17.73;;;13.30;;
20042;SDS011;10182;52.896;6.496;2022-12-05T08:57:35;17.43;;;12.10;;
20042;SDS011;10182;52.896;6.496;2022-12-05T09:02:37;18.53;;;12.67;;
20042;SDS011;10182;52.896;6.496;2022-12-05T09:07:40;19.77;;;12.93;;
20042;SDS011;10182;52.896;6.496;2022-12-05T09:12:45;14.27;;;10.80;;
20042;SDS011;10182;52.896;6.496;2022-12-05T09:17:46;16.37;;;11.00;;
20042;SDS011;10182;52.896;6.496;2022-12-05T09:22:49;16.10;;;10.43;;
20042;SDS011;10182;52.896;6.496;2022-12-05T09:27:52;16.37;;;11.07;;
20042;SDS011;10182;52.896;6.496;2022-12-05T09:32:54;16.47;;;11.10;;
20042;SDS011;10182;52.896;6.496;2022-12-05T09:37:57;16.43;;;10.80;;
20042;SDS011;10182;52.896;6.496;2022-12-05T09:43:00;17.90;;;11.80;;
20042;SDS011;10182;52.896;6.496;2022-12-05T09:48:09;16.07;;;10.70;;
20042;SDS011;10182;52.896;6.496;2022-12-05T09:53:19;14.63;;;11.03;;
20042;SDS011;10182;52.896;6.496;2022-12-05T09:58:29;14.57;;;10.10;;
20042;SDS011;10182;52.896;6.496;2022-12-05T10:03:41;16.43;;;11.13;;
20042;SDS011;10182;52.896;6.496;2022-12-05T10:09:00;14.97;;;10.83;;
20042;SDS011;10182;52.896;6.496;2022-12-05T10:14:16;13.37;;;10.97;;
20042;SDS011;10182;52.896;6.496;2022-12-05T10:19:24;13.47;;;10.10;;
20042;SDS011;10182;52.896;6.496;2022-12-05T10:24:35;14.83;;;11.33;;
20042;SDS011;10182;52.896;6.496;2022-12-05T10:29:40;14.90;;;10.00;;
20042;SDS011;10182;52.896;6.496;2022-12-05T10:34:45;14.57;;;10.90;;
20042;SDS011;10182;52.896;6.496;2022-12-05T10:39:49;15.17;;;10.70;;
20042;SDS011;10182;52.896;6.496;2022-12-05T10:44:55;15.07;;;10.37;;
20042;SDS011;10182;52.896;6.496;2022-12-05T10:49:59;15.23;;;10.70;;
20042;SDS011;10182;52.896;6.496;2022-12-05T10:55:06;14.03;;;10.70;;
20042;SDS011;10182;52.896;6.496;2022-12-05T11:00:14;14.37;;;10.43;;
20042;SDS011;10182;52.896;6.496;2022-12-05T11:10:38;14.50;;;12.23;;
20042;SDS011;10182;52.896;6.496;2022-12-05T11:15:43;16.00;;;11.67;;
20042;SDS011;10182;52.896;6.496;2022-12-05T11:20:46;15.60;;;11.07;;
20042;SDS011;10182;52.896;6.496;2022-12-05T11:25:49;14.40;;;10.90;;
20042;SDS011;10182;52.896;6.496;2022-12-05T11:30:55;17.13;;;11.70;;
20042;SDS011;10182;52.896;6.496;2022-12-05T11:36:00;15.93;;;12.23;;
20042;SDS011;10182;52.896;6.496;2022-12-05T11:41:16;12.87;;;10.00;;
20042;SDS011;10182;52.896;6.496;2022-12-05T11:46:35;14.90;;;11.07;;
20042;SDS011;10182;52.896;6.496;2022-12-05T11:51:46;12.70;;;8.97;;
20042;SDS011;10182;52.896;6.496;2022-12-05T11:56:57;11.83;;;9.77;;
20042;SDS011;10182;52.896;6.496;2022-12-05T12:02:05;13.50;;;9.37;;
20042;SDS011;10182;52.896;6.496;2022-12-05T12:07:22;13.70;;;9.20;;
20042;SDS011;10182;52.896;6.496;2022-12-05T12:12:30;12.67;;;9.03;;
20042;SDS011;10182;52.896;6.496;2022-12-05T12:17:41;9.60;;;8.57;;
20042;SDS011;10182;52.896;6.496;2022-12-05T12:22:53;10.77;;;8.40;;
20042;SDS011;10182;52.896;6.496;2022-12-05T12:28:17;9.63;;;7.67;;
20042;SDS011;10182;52.896;6.496;2022-12-05T12:33:30;11.03;;;8.07;;
20042;SDS011;10182;52.896;6.496;2022-12-05T12:38:43;9.10;;;6.93;;
20042;SDS011;10182;52.896;6.496;2022-12-05T12:44:00;10.90;;;6.80;;
20042;SDS011;10182;52.896;6.496;2022-12-05T12:49:15;10.70;;;7.73;;
20042;SDS011;10182;52.896;6.496;2022-12-05T12:54:40;9.57;;;7.40;;
20042;SDS011;10182;52.896;6.496;2022-12-05T13:00:08;12.30;;;6.80;;
20042;SDS011;10182;52.896;6.496;2022-12-05T13:05:22;9.27;;;6.60;;
20042;SDS011;10182;52.896;6.496;2022-12-05T13:10:32;8.93;;;6.90;;
20042;SDS011;10182;52.896;6.496;2022-12-05T13:15:40;9.10;;;6.50;;
20042;SDS011;10182;52.896;6.496;2022-12-05T13:20:47;8.20;;;6.97;;
20042;SDS011;10182;52.896;6.496;2022-12-05T13:25:52;6.93;;;6.03;;
20042;SDS011;10182;52.896;6.496;2022-12-05T13:30:58;8.80;;;6.23;;
20042;SDS011;10182;52.896;6.496;2022-12-05T13:36:07;9.30;;;7.67;;
20042;SDS011;10182;52.896;6.496;2022-12-05T13:41:38;7.53;;;6.00;;
20042;SDS011;10182;52.896;6.496;2022-12-05T13:46:59;6.87;;;6.17;;
20042;SDS011;10182;52.896;6.496;2022-12-05T13:52:07;16.83;;;10.87;;
20042;SDS011;10182;52.896;6.496;2022-12-05T14:02:52;10.20;;;7.73;;
20042;SDS011;10182;52.896;6.496;2022-12-05T14:07:56;13.50;;;10.30;;
20042;SDS011;10182;52.896;6.496;2022-12-05T14:12:58;11.97;;;9.27;;
20042;SDS011;10182;52.896;6.496;2022-12-05T14:18:03;15.13;;;11.20;;
20042;SDS011;10182;52.896;6.496;2022-12-05T14:23:14;12.03;;;8.67;;
20042;SDS011;10182;52.896;6.496;2022-12-05T14:28:39;14.07;;;10.37;;
20042;SDS011;10182;52.896;6.496;2022-12-05T14:34:04;11.57;;;9.27;;
20042;SDS011;10182;52.896;6.496;2022-12-05T14:39:19;13.03;;;8.77;;
20042;SDS011;10182;52.896;6.496;2022-12-05T14:44:22;10.77;;;9.07;;
20042;SDS011;10182;52.896;6.496;2022-12-05T14:49:50;9.27;;;8.07;;
20042;SDS011;10182;52.896;6.496;2022-12-05T14:55:02;12.13;;;8.03;;
20042;SDS011;10182;52.896;6.496;2022-12-05T15:00:14;12.13;;;10.10;;
20042;SDS011;10182;52.896;6.496;2022-12-05T15:05:22;9.73;;;7.90;;
20042;SDS011;10182;52.896;6.496;2022-12-05T15:10:28;11.07;;;7.20;;
20042;SDS011;10182;52.896;6.496;2022-12-05T15:15:34;11.90;;;7.47;;
20042;SDS011;10182;52.896;6.496;2022-12-05T15:20:42;12.10;;;9.77;;
20042;SDS011;10182;52.896;6.496;2022-12-05T15:25:50;13.13;;;11.73;;
20042;SDS011;10182;52.896;6.496;2022-12-05T15:30:54;10.50;;;8.27;;
20042;SDS011;10182;52.896;6.496;2022-12-05T15:35:58;10.03;;;8.83;;
20042;SDS011;10182;52.896;6.496;2022-12-05T15:41:01;13.10;;;7.87;;
20042;SDS011;10182;52.896;6.496;2022-12-05T15:46:07;12.20;;;8.00;;
20042;SDS011;10182;52.896;6.496;2022-12-05T15:51:26;11.80;;;7.87;;
20042;SDS011;10182;52.896;6.496;2022-12-05T15:56:36;11.33;;;8.20;;
20042;SDS011;10182;52.896;6.496;2022-12-05T16:01:41;11.47;;;7.83;;
20042;SDS011;10182;52.896;6.496;2022-12-05T16:06:49;8.83;;;6.50;;
20042;SDS011;10182;52.896;6.496;2022-12-05T16:11:55;10.63;;;6.33;;
20042;SDS011;10182;52.896;6.496;2022-12-05T16:16:59;9.23;;;6.90;;
20042;SDS011;10182;52.896;6.496;2022-12-05T16:22:07;9.33;;;6.67;;
20042;SDS011;10182;52.896;6.496;2022-12-05T16:27:12;8.23;;;6.03;;
20042;SDS011;10182;52.896;6.496;2022-12-05T16:32:17;7.83;;;6.30;;
20042;SDS011;10182;52.896;6.496;2022-12-05T16:37:25;7.90;;;5.63;;
20042;SDS011;10182;52.896;6.496;2022-12-05T16:42:28;10.30;;;7.70;;
20042;SDS011;10182;52.896;6.496;2022-12-05T16:47:51;8.37;;;6.63;;
20042;SDS011;10182;52.896;6.496;2022-12-05T16:53:03;9.00;;;6.50;;
20042;SDS011;10182;52.896;6.496;2022-12-05T16:58:22;8.50;;;7.00;;
20042;SDS011;10182;52.896;6.496;2022-12-05T17:03:25;8.20;;;6.47;;
20042;SDS011;10182;52.896;6.496;2022-12-05T17:08:29;9.40;;;6.90;;
20042;SDS011;10182;52.896;6.496;2022-12-05T17:13:30;11.40;;;8.47;;
20042;SDS011;10182;52.896;6.496;2022-12-05T17:18:32;8.83;;;6.93;;
20042;SDS011;10182;52.896;6.496;2022-12-05T17:23:36;7.97;;;6.27;;
20042;SDS011;10182;52.896;6.496;2022-12-05T17:28:37;8.03;;;5.97;;
20042;SDS011;10182;52.896;6.496;2022-12-05T17:33:39;9.23;;;7.13;;
20042;SDS011;10182;52.896;6.496;2022-12-05T17:38:42;18.87;;;14.67;;
20042;SDS011;10182;52.896;6.496;2022-12-05T17:43:44;12.50;;;10.13;;
20042;SDS011;10182;52.896;6.496;2022-12-05T17:48:47;8.50;;;6.30;;
20042;SDS011;10182;52.896;6.496;2022-12-05T17:53:51;14.43;;;10.50;;
20042;SDS011;10182;52.896;6.496;2022-12-05T17:58:53;9.00;;;8.10;;
20042;SDS011;10182;52.896;6.496;2022-12-05T18:03:55;11.47;;;9.03;;
20042;SDS011;10182;52.896;6.496;2022-12-05T18:08:58;20.07;;;13.60;;
20042;SDS011;10182;52.896;6.496;2022-12-05T18:14:00;31.03;;;23.07;;
20042;SDS011;10182;52.896;6.496;2022-12-05T18:19:01;8.67;;;6.53;;
20042;SDS011;10182;52.896;6.496;2022-12-05T18:24:05;8.13;;;6.20;;
20042;SDS011;10182;52.896;6.496;2022-12-05T18:29:06;10.23;;;7.13;;
20042;SDS011;10182;52.896;6.496;2022-12-05T18:34:08;8.97;;;7.07;;
20042;SDS011;10182;52.896;6.496;2022-12-05T18:39:12;9.87;;;7.53;;
20042;SDS011;10182;52.896;6.496;2022-12-05T18:44:14;9.10;;;7.53;;
20042;SDS011;10182;52.896;6.496;2022-12-05T18:49:15;17.90;;;13.10;;
20042;SDS011;10182;52.896;6.496;2022-12-05T18:54:19;10.53;;;7.27;;
20042;SDS011;10182;52.896;6.496;2022-12-05T18:59:21;12.17;;;10.83;;
20042;SDS011;10182;52.896;6.496;2022-12-05T19:04:22;9.50;;;8.33;;
20042;SDS011;10182;52.896;6.496;2022-12-05T19:09:26;15.20;;;10.67;;
20042;SDS011;10182;52.896;6.496;2022-12-05T19:14:29;14.83;;;11.37;;
20042;SDS011;10182;52.896;6.496;2022-12-05T19:19:32;9.53;;;7.53;;
20042;SDS011;10182;52.896;6.496;2022-12-05T19:24:35;10.40;;;7.90;;
20042;SDS011;10182;52.896;6.496;2022-12-05T19:29:37;13.27;;;11.70;;
20042;SDS011;10182;52.896;6.496;2022-12-05T19:34:38;12.63;;;11.07;;
20042;SDS011;10182;52.896;6.496;2022-12-05T19:39:41;9.20;;;7.83;;
20042;SDS011;10182;52.896;6.496;2022-12-05T19:44:44;8.17;;;6.27;;
20042;SDS011;10182;52.896;6.496;2022-12-05T19:49:45;18.13;;;16.20;;
20042;SDS011;10182;52.896;6.496;2022-12-05T19:54:48;11.47;;;9.63;;
20042;SDS011;10182;52.896;6.496;2022-12-05T19:59:50;11.47;;;9.60;;
20042;SDS011;10182;52.896;6.496;2022-12-05T20:04:52;8.00;;;7.03;;
20042;SDS011;10182;52.896;6.496;2022-12-05T20:09:55;9.33;;;7.70;;
20042;SDS011;10182;52.896;6.496;2022-12-05T20:14:59;9.90;;;7.93;;
20042;SDS011;10182;52.896;6.496;2022-12-05T20:20:01;11.73;;;8.10;;
20042;SDS011;10182;52.896;6.496;2022-12-05T20:25:04;8.83;;;6.83;;
20042;SDS011;10182;52.896;6.496;2022-12-05T20:30:07;12.00;;;9.00;;
20042;SDS011;10182;52.896;6.496;2022-12-05T20:35:09;14.70;;;11.23;;
20042;SDS011;10182;52.896;6.496;2022-12-05T20:40:12;7.67;;;6.87;;
20042;SDS011;10182;52.896;6.496;2022-12-05T20:45:14;19.97;;;13.50;;
20042;SDS011;10182;52.896;6.496;2022-12-05T20:50:15;12.67;;;9.87;;
20042;SDS011;10182;52.896;6.496;2022-12-05T20:55:19;17.20;;;11.53;;
20042;SDS011;10182;52.896;6.496;2022-12-05T21:00:20;11.37;;;7.90;;
20042;SDS011;10182;52.896;6.496;2022-12-05T21:05:23;7.73;;;6.53;;
20042;SDS011;10182;52.896;6.496;2022-12-05T21:10:26;11.63;;;9.67;;
20042;SDS011;10182;52.896;6.496;2022-12-05T21:15:28;10.13;;;6.23;;
20042;SDS011;10182;52.896;6.496;2022-12-05T21:20:30;12.67;;;8.07;;
20042;SDS011;10182;52.896;6.496;2022-12-05T21:25:33;9.93;;;7.10;;
20042;SDS011;10182;52.896;6.496;2022-12-05T21:30:34;8.33;;;6.63;;
20042;SDS011;10182;52.896;6.496;2022-12-05T21:35:36;13.40;;;8.77;;
20042;SDS011;10182;52.896;6.496;2022-12-05T21:40:42;10.20;;;7.97;;
20042;SDS011;10182;52.896;6.496;2022-12-05T21:45:43;10.63;;;7.10;;
20042;SDS011;10182;52.896;6.496;2022-12-05T21:50:45;15.37;;;9.87;;
20042;SDS011;10182;52.896;6.496;2022-12-05T21:55:54;17.60;;;9.47;;
20042;SDS011;10182;52.896;6.496;2022-12-05T22:00:58;17.93;;;9.50;;
20042;SDS011;10182;52.896;6.496;2022-12-05T22:06:01;12.83;;;7.33;;
20042;SDS011;10182;52.896;6.496;2022-12-05T22:11:05;9.23;;;6.37;;
20042;SDS011;10182;52.896;6.496;2022-12-05T22:16:09;8.47;;;6.43;;
20042;SDS011;10182;52.896;6.496;2022-12-05T22:21:11;16.93;;;7.10;;
20042;SDS011;10182;52.896;6.496;2022-12-05T22:26:16;13.87;;;7.83;;
20042;SDS011;10182;52.896;6.496;2022-12-05T22:31:19;11.80;;;6.97;;
20042;SDS011;10182;52.896;6.496;2022-12-05T22:36:22;10.20;;;8.00;;
20042;SDS011;10182;52.896;6.496;2022-12-05T22:41:25;15.43;;;7.93;;
20042;SDS011;10182;52.896;6.496;2022-12-05T22:46:27;14.97;;;7.77;;
20042;SDS011;10182;52.896;6.496;2022-12-05T22:51:30;16.90;;;8.03;;
20042;SDS011;10182;52.896;6.496;2022-12-05T22:56:33;13.37;;;7.57;;
20042;SDS011;10182;52.896;6.496;2022-12-05T23:01:34;12.83;;;7.37;;
20042;SDS011;10182;52.896;6.496;2022-12-05T23:06:36;12.07;;;8.47;;
20042;SDS011;10182;52.896;6.496;2022-12-05T23:11:40;16.63;;;9.07;;
20042;SDS011;10182;52.896;6.496;2022-12-05T23:16:42;13.17;;;7.33;;
20042;SDS011;10182;52.896;6.496;2022-12-05T23:21:45;9.43;;;6.40;;
20042;SDS011;10182;52.896;6.496;2022-12-05T23:26:48;11.47;;;6.70;;
20042;SDS011;10182;52.896;6.496;2022-12-05T23:31:50;14.93;;;7.70;;
20042;SDS011;10182;52.896;6.496;2022-12-05T23:36:52;9.77;;;5.77;;
20042;SDS011;10182;52.896;6.496;2022-12-05T23:41:55;11.20;;;6.33;;
20042;SDS011;10182;52.896;6.496;2022-12-05T23:46:57;10.40;;;6.47;;
20042;SDS011;10182;52.896;6.496;2022-12-05T23:51:59;17.73;;;7.43;;
20042;SDS011;10182;52.896;6.496;2022-12-05T23:57:03;16.00;;;8.07;;
